createdAt,value
2019-05-26T00:00:31.769Z,20.00
2019-05-26T00:01:31.766Z,20.00
2019-05-26T00:02:31.749Z,16.00
2019-05-26T00:03:31.782Z,20.00
2019-05-26T00:04:31.730Z,20.00
2019-05-26T00:05:31.713Z,20.00
2019-05-26T00:06:31.712Z,16.00
2019-05-26T00:07:31.690Z,20.00
2019-05-26T00:08:31.690Z,20.00
2019-05-26T00:09:44.176Z,20.00
2019-05-26T00:10:31.655Z,20.00
2019-05-26T00:11:31.645Z,28.00
2019-05-26T00:12:31.640Z,24.00
2019-05-26T00:13:31.630Z,28.00
2019-05-26T00:14:31.658Z,28.00
2019-05-26T00:15:31.607Z,24.00
2019-05-26T00:16:31.591Z,24.00
2019-05-26T00:17:31.578Z,24.00
2019-05-26T00:18:33.409Z,24.00
2019-05-26T00:19:31.558Z,24.00
2019-05-26T00:20:31.590Z,24.00
2019-05-26T00:21:31.536Z,24.00
2019-05-26T00:22:31.527Z,24.00
2019-05-26T00:23:31.515Z,28.00
2019-05-26T00:24:31.509Z,28.00
2019-05-26T00:25:31.490Z,36.00
2019-05-26T00:26:31.491Z,40.00
2019-05-26T00:27:31.467Z,44.00
2019-05-26T00:28:31.458Z,40.00
2019-05-26T00:29:31.456Z,40.00
2019-05-26T00:30:31.430Z,44.00
2019-05-26T00:31:31.431Z,48.00
2019-05-26T00:32:31.469Z,48.00
2019-05-26T00:33:31.413Z,48.00
2019-05-26T00:34:31.391Z,56.00
2019-05-26T00:35:31.380Z,64.00
2019-05-26T00:36:31.411Z,64.00
2019-05-26T00:37:47.652Z,68.00
2019-05-26T00:38:32.346Z,72.00
2019-05-26T00:39:31.336Z,80.00
2019-05-26T00:40:44.533Z,80.00
2019-05-26T00:41:31.310Z,80.00
2019-05-26T00:42:31.339Z,76.00
2019-05-26T00:43:31.297Z,76.00
2019-05-26T00:44:31.278Z,76.00
2019-05-26T00:45:31.266Z,76.00
2019-05-26T00:46:31.261Z,84.00
2019-05-26T00:47:31.246Z,88.00
2019-05-26T00:48:31.239Z,92.00
2019-05-26T00:49:31.219Z,96.00
2019-05-26T00:50:31.211Z,96.00
2019-05-26T00:51:31.198Z,96.00
2019-05-26T00:52:31.194Z,104.00
2019-05-26T00:53:31.215Z,116.00
2019-05-26T00:54:31.160Z,116.00
2019-05-26T00:55:31.154Z,116.00
2019-05-26T00:56:31.199Z,112.00
2019-05-26T00:57:31.146Z,100.00
2019-05-26T00:58:31.122Z,92.00
2019-05-26T00:59:31.153Z,84.00
2019-05-26T01:00:31.100Z,88.00
2019-05-26T01:01:31.078Z,88.00
2019-05-26T01:02:31.069Z,96.00
2019-05-26T01:03:31.059Z,104.00
2019-05-26T01:04:31.042Z,112.00
2019-05-26T01:05:31.048Z,116.00
2019-05-26T01:06:31.026Z,112.00
2019-05-26T01:07:31.014Z,104.00
2019-05-26T01:08:31.682Z,96.00
2019-05-26T01:09:30.988Z,84.00
2019-05-26T01:10:30.990Z,88.00
2019-05-26T01:11:43.957Z,104.00
2019-05-26T01:12:30.957Z,120.00
2019-05-26T01:13:30.945Z,120.00
2019-05-26T01:14:30.939Z,124.00
2019-05-26T01:15:30.927Z,120.00
2019-05-26T01:16:30.907Z,136.00
2019-05-26T01:17:30.903Z,148.00
2019-05-26T01:18:30.889Z,148.00
2019-05-26T01:19:30.882Z,148.00
2019-05-26T01:20:30.875Z,144.00
2019-05-26T01:21:30.854Z,164.00
2019-05-26T01:22:30.845Z,188.00
2019-05-26T01:23:30.834Z,216.00
2019-05-26T01:24:30.824Z,240.00
2019-05-26T01:25:30.845Z,260.00
2019-05-26T01:26:30.793Z,280.00
2019-05-26T01:27:30.782Z,284.00
2019-05-26T01:28:30.776Z,284.00
2019-05-26T01:29:30.761Z,284.00
2019-05-26T01:30:30.762Z,284.00
2019-05-26T01:31:30.774Z,304.00
2019-05-26T01:32:30.731Z,300.00
2019-05-26T01:33:30.719Z,300.00
2019-05-26T01:34:30.708Z,304.00
2019-05-26T01:35:30.693Z,316.00
2019-05-26T01:36:30.686Z,324.00
2019-05-26T01:37:30.709Z,332.00
2019-05-26T01:38:30.658Z,336.00
2019-05-26T01:39:30.649Z,332.00
2019-05-26T01:40:30.639Z,324.00
2019-05-26T01:41:30.625Z,320.00
2019-05-26T01:42:43.255Z,320.00
2019-05-26T01:43:30.622Z,316.00
2019-05-26T01:44:30.680Z,304.00
2019-05-26T01:45:30.627Z,284.00
2019-05-26T01:46:30.571Z,268.00
2019-05-26T01:47:30.566Z,264.00
2019-05-26T01:48:30.616Z,264.00
2019-05-26T01:49:30.551Z,272.00
2019-05-26T01:50:30.522Z,296.00
2019-05-26T01:51:30.565Z,304.00
2019-05-26T01:52:30.520Z,300.00
2019-05-26T01:53:30.494Z,308.00
2019-05-26T01:54:30.492Z,328.00
2019-05-26T01:55:30.470Z,344.00
2019-05-26T01:56:30.460Z,344.00
2019-05-26T01:57:30.446Z,320.00
2019-05-26T01:58:30.443Z,292.00
2019-05-26T01:59:30.436Z,300.00
2019-05-26T02:00:30.415Z,344.00
2019-05-26T02:01:30.408Z,368.00
2019-05-26T02:02:30.397Z,412.00
2019-05-26T02:03:30.371Z,396.00
2019-05-26T02:04:30.379Z,372.00
2019-05-26T02:05:30.349Z,364.00
2019-05-26T02:06:30.339Z,408.00
2019-05-26T02:07:30.442Z,428.00
2019-05-26T02:08:38.866Z,456.00
2019-05-26T02:09:31.760Z,464.00
2019-05-26T02:10:30.307Z,484.00
2019-05-26T02:11:30.286Z,484.00
2019-05-26T02:12:30.283Z,456.00
2019-05-26T02:13:42.066Z,464.00
2019-05-26T02:14:30.250Z,456.00
2019-05-26T02:15:30.253Z,436.00
2019-05-26T02:16:30.250Z,448.00
2019-05-26T02:17:30.259Z,472.00
2019-05-26T02:18:30.215Z,480.00
2019-05-26T02:19:30.213Z,484.00
2019-05-26T02:20:30.195Z,508.00
2019-05-26T02:21:30.176Z,532.00
2019-05-26T02:22:30.210Z,500.00
2019-05-26T02:23:30.151Z,496.00
2019-05-26T02:24:30.139Z,508.00
2019-05-26T02:25:30.127Z,548.00
2019-05-26T02:26:30.115Z,580.00
2019-05-26T02:27:30.104Z,604.00
2019-05-26T02:28:30.098Z,612.00
2019-05-26T02:29:30.097Z,592.00
2019-05-26T02:30:30.065Z,584.00
2019-05-26T02:31:30.102Z,548.00
2019-05-26T02:32:30.247Z,504.00
2019-05-26T02:33:30.030Z,464.00
2019-05-26T02:34:30.032Z,432.00
2019-05-26T02:35:30.040Z,424.00
2019-05-26T02:36:30.020Z,412.00
2019-05-26T02:37:29.994Z,404.00
2019-05-26T02:38:30.020Z,392.00
2019-05-26T02:39:29.992Z,392.00
2019-05-26T02:40:29.953Z,392.00
2019-05-26T02:41:29.949Z,408.00
2019-05-26T02:42:29.955Z,412.00
2019-05-26T02:43:29.932Z,412.00
2019-05-26T02:44:43.451Z,424.00
2019-05-26T02:45:29.900Z,424.00
2019-05-26T02:46:29.884Z,436.00
2019-05-26T02:47:29.888Z,456.00
2019-05-26T02:48:29.916Z,456.00
2019-05-26T02:49:29.859Z,452.00
2019-05-26T02:50:29.846Z,488.00
2019-05-26T02:51:29.830Z,508.00
2019-05-26T02:52:29.842Z,564.00
2019-05-26T02:53:29.807Z,676.00
2019-05-26T02:54:29.808Z,696.00
2019-05-26T02:55:29.791Z,776.00
2019-05-26T02:56:29.774Z,780.00
2019-05-26T02:57:29.769Z,764.00
2019-05-26T02:58:29.751Z,788.00
2019-05-26T02:59:29.793Z,864.00
2019-05-26T03:00:29.785Z,872.00
2019-05-26T03:01:29.721Z,900.00
2019-05-26T03:02:29.707Z,912.00
2019-05-26T03:03:29.707Z,1008.00
2019-05-26T03:04:29.683Z,1144.00
2019-05-26T03:05:29.715Z,1296.00
2019-05-26T03:06:29.662Z,1468.00
2019-05-26T03:07:29.651Z,1376.00
2019-05-26T03:08:29.638Z,1284.00
2019-05-26T03:09:29.641Z,1116.00
2019-05-26T03:10:29.627Z,1024.00
2019-05-26T03:11:29.658Z,1036.00
2019-05-26T03:12:29.603Z,1060.00
2019-05-26T03:13:29.582Z,1124.00
2019-05-26T03:14:29.584Z,1064.00
2019-05-26T03:15:42.216Z,1056.00
2019-05-26T03:16:30.345Z,1036.00
2019-05-26T03:17:29.853Z,968.00
2019-05-26T03:18:29.534Z,920.00
2019-05-26T03:19:29.540Z,836.00
2019-05-26T03:20:29.514Z,832.00
2019-05-26T03:21:29.535Z,864.00
2019-05-26T03:22:29.496Z,848.00
2019-05-26T03:23:29.477Z,784.00
2019-05-26T03:24:29.460Z,732.00
2019-05-26T03:25:29.448Z,720.00
2019-05-26T03:26:29.440Z,660.00
2019-05-26T03:27:29.443Z,640.00
2019-05-26T03:28:29.415Z,676.00
2019-05-26T03:29:29.406Z,704.00
2019-05-26T03:30:29.408Z,696.00
2019-05-26T03:31:29.388Z,692.00
2019-05-26T03:32:29.407Z,736.00
2019-05-26T03:33:29.368Z,732.00
2019-05-26T03:34:29.365Z,716.00
2019-05-26T03:35:29.380Z,748.00
2019-05-26T03:36:29.339Z,756.00
2019-05-26T03:37:29.325Z,780.00
2019-05-26T03:38:29.834Z,732.00
2019-05-26T03:39:43.498Z,692.00
2019-05-26T03:40:30.290Z,688.00
2019-05-26T03:41:29.283Z,676.00
2019-05-26T03:42:29.269Z,660.00
2019-05-26T03:43:29.286Z,668.00
2019-05-26T03:44:29.246Z,708.00
2019-05-26T03:45:29.226Z,708.00
2019-05-26T03:46:41.530Z,748.00
2019-05-26T03:47:29.201Z,768.00
2019-05-26T03:48:29.192Z,776.00
2019-05-26T03:49:29.188Z,780.00
2019-05-26T03:50:29.181Z,820.00
2019-05-26T03:51:29.160Z,800.00
2019-05-26T03:52:29.146Z,740.00
2019-05-26T03:53:29.137Z,736.00
2019-05-26T03:54:29.154Z,776.00
2019-05-26T03:55:29.124Z,816.00
2019-05-26T03:56:29.101Z,768.00
2019-05-26T03:57:29.088Z,816.00
2019-05-26T03:58:29.080Z,832.00
2019-05-26T03:59:29.085Z,808.00
2019-05-26T04:00:29.067Z,800.00
2019-05-26T04:01:29.065Z,740.00
2019-05-26T04:02:29.039Z,720.00
2019-05-26T04:03:29.025Z,732.00
2019-05-26T04:04:29.024Z,748.00
2019-05-26T04:05:29.009Z,724.00
2019-05-26T04:06:29.002Z,732.00
2019-05-26T04:07:28.982Z,700.00
2019-05-26T04:08:28.975Z,700.00
2019-05-26T04:09:28.957Z,700.00
2019-05-26T04:10:28.946Z,716.00
2019-05-26T04:11:28.952Z,748.00
2019-05-26T04:12:28.924Z,764.00
2019-05-26T04:13:28.910Z,788.00
2019-05-26T04:14:28.897Z,808.00
2019-05-26T04:15:28.893Z,820.00
2019-05-26T04:16:28.882Z,808.00
2019-05-26T04:17:43.921Z,788.00
2019-05-26T04:18:28.867Z,776.00
2019-05-26T04:19:28.857Z,776.00
2019-05-26T04:20:28.832Z,808.00
2019-05-26T04:21:28.829Z,824.00
2019-05-26T04:22:28.835Z,852.00
2019-05-26T04:23:28.868Z,924.00
2019-05-26T04:24:28.796Z,940.00
2019-05-26T04:25:28.788Z,1012.00
2019-05-26T04:26:28.759Z,1176.00
2019-05-26T04:27:28.817Z,1356.00
2019-05-26T04:28:28.759Z,1532.00
2019-05-26T04:29:28.724Z,1648.00
2019-05-26T04:30:28.723Z,1744.00
2019-05-26T04:31:28.709Z,1748.00
2019-05-26T04:32:28.698Z,1716.00
2019-05-26T04:33:28.695Z,1712.00
2019-05-26T04:34:28.666Z,1696.00
2019-05-26T04:35:28.669Z,1652.00
2019-05-26T04:36:28.644Z,1652.00
2019-05-26T04:37:28.634Z,1656.00
2019-05-26T04:38:28.665Z,1624.00
2019-05-26T04:39:28.630Z,1644.00
2019-05-26T04:40:28.607Z,1680.00
2019-05-26T04:41:28.599Z,1720.00
2019-05-26T04:42:28.591Z,1760.00
2019-05-26T04:43:28.579Z,1876.00
2019-05-26T04:44:28.571Z,2068.00
2019-05-26T04:45:28.581Z,2140.00
2019-05-26T04:46:28.647Z,2220.00
2019-05-26T04:47:28.522Z,2304.00
2019-05-26T04:48:40.966Z,2352.00
2019-05-26T04:49:28.503Z,2436.00
2019-05-26T04:50:28.509Z,2568.00
2019-05-26T04:51:28.506Z,2728.00
2019-05-26T04:52:28.474Z,2804.00
2019-05-26T04:53:28.489Z,2792.00
2019-05-26T04:54:28.469Z,2708.00
2019-05-26T04:55:28.448Z,2560.00
2019-05-26T04:56:28.427Z,2516.00
2019-05-26T04:57:28.412Z,2492.00
2019-05-26T04:58:28.402Z,2428.00
2019-05-26T04:59:28.401Z,2412.00
2019-05-26T05:00:28.394Z,2440.00
2019-05-26T05:01:28.422Z,2532.00
2019-05-26T05:02:28.355Z,2676.00
2019-05-26T05:03:28.349Z,2700.00
2019-05-26T05:04:28.329Z,2660.00
2019-05-26T05:05:28.317Z,2628.00
2019-05-26T05:06:28.313Z,2620.00
2019-05-26T05:07:28.905Z,2748.00
2019-05-26T05:08:28.287Z,2908.00
2019-05-26T05:09:28.367Z,3032.00
2019-05-26T05:10:41.310Z,3136.00
2019-05-26T05:11:29.460Z,3184.00
2019-05-26T05:12:28.240Z,3240.00
2019-05-26T05:13:28.233Z,3316.00
2019-05-26T05:14:28.225Z,3428.00
2019-05-26T05:15:28.214Z,3620.00
2019-05-26T05:16:28.199Z,3916.00
2019-05-26T05:17:28.194Z,4380.00
2019-05-26T05:18:28.173Z,4960.00
2019-05-26T05:19:40.627Z,5552.00
2019-05-26T05:20:28.152Z,6120.00
2019-05-26T05:21:28.155Z,6584.00
2019-05-26T05:22:28.131Z,6856.00
2019-05-26T05:23:28.120Z,6972.00
2019-05-26T05:24:28.115Z,6944.00
2019-05-26T05:25:28.111Z,6760.00
2019-05-26T05:26:28.081Z,6512.00
2019-05-26T05:27:28.080Z,6304.00
2019-05-26T05:28:28.069Z,6136.00
2019-05-26T05:29:28.053Z,6052.00
2019-05-26T05:30:28.039Z,5968.00
2019-05-26T05:31:28.031Z,5936.00
2019-05-26T05:32:28.026Z,6004.00
2019-05-26T05:33:28.009Z,6076.00
2019-05-26T05:34:28.001Z,6128.00
2019-05-26T05:35:27.996Z,6232.00
2019-05-26T05:36:27.981Z,6388.00
2019-05-26T05:37:27.974Z,6668.00
2019-05-26T05:38:27.960Z,7012.00
2019-05-26T05:39:27.949Z,7420.00
2019-05-26T05:40:27.950Z,7892.00
2019-05-26T05:41:27.919Z,7908.00
2019-05-26T05:42:27.907Z,7824.00
2019-05-26T05:43:27.909Z,7784.00
2019-05-26T05:44:27.894Z,7572.00
2019-05-26T05:45:27.872Z,7392.00
2019-05-26T05:46:27.864Z,7228.00
2019-05-26T05:47:27.851Z,7184.00
2019-05-26T05:48:27.842Z,7024.00
2019-05-26T05:49:27.867Z,6832.00
2019-05-26T05:50:41.117Z,6612.00
2019-05-26T05:51:27.817Z,6412.00
2019-05-26T05:52:27.806Z,6124.00
2019-05-26T05:53:27.808Z,5712.00
2019-05-26T05:54:27.776Z,5428.00
2019-05-26T05:55:27.856Z,5148.00
2019-05-26T05:56:27.774Z,4808.00
2019-05-26T05:57:27.750Z,4412.00
2019-05-26T05:58:27.729Z,4124.00
2019-05-26T05:59:27.712Z,4024.00
2019-05-26T06:00:27.745Z,4200.00
2019-05-26T06:01:27.696Z,4492.00
2019-05-26T06:02:27.685Z,4304.00
2019-05-26T06:03:27.673Z,3808.00
2019-05-26T06:04:27.656Z,3312.00
2019-05-26T06:05:27.656Z,2944.00
2019-05-26T06:06:27.647Z,2644.00
2019-05-26T06:07:27.629Z,2380.00
2019-05-26T06:08:27.606Z,2232.00
2019-05-26T06:09:27.606Z,2208.00
2019-05-26T06:10:27.588Z,2104.00
2019-05-26T06:11:27.619Z,2052.00
2019-05-26T06:12:27.573Z,2204.00
2019-05-26T06:13:27.554Z,2468.00
2019-05-26T06:14:27.587Z,2684.00
2019-05-26T06:15:27.532Z,2976.00
2019-05-26T06:16:27.517Z,3484.00
2019-05-26T06:17:27.602Z,3860.00
2019-05-26T06:18:27.513Z,4076.00
2019-05-26T06:19:27.500Z,4372.00
2019-05-26T06:20:27.489Z,4784.00
2019-05-26T06:21:40.212Z,5200.00
2019-05-26T06:22:27.450Z,5548.00
2019-05-26T06:23:27.480Z,5960.00
2019-05-26T06:24:27.434Z,6416.00
2019-05-26T06:25:27.442Z,6936.00
2019-05-26T06:26:27.473Z,7376.00
2019-05-26T06:27:27.396Z,7660.00
2019-05-26T06:28:27.386Z,7800.00
2019-05-26T06:29:27.379Z,7944.00
2019-05-26T06:30:27.362Z,8120.00
2019-05-26T06:31:27.356Z,8296.00
2019-05-26T06:32:27.343Z,8592.00
2019-05-26T06:33:27.327Z,8864.00
2019-05-26T06:34:27.328Z,9120.00
2019-05-26T06:35:27.306Z,9296.00
2019-05-26T06:36:27.300Z,9396.00
2019-05-26T06:37:27.286Z,9624.00
2019-05-26T06:38:27.268Z,9748.00
2019-05-26T06:39:27.266Z,9736.00
2019-05-26T06:40:27.255Z,9704.00
2019-05-26T06:41:33.320Z,9736.00
2019-05-26T06:42:28.223Z,9876.00
2019-05-26T06:43:27.215Z,9940.00
2019-05-26T06:44:27.202Z,9968.00
2019-05-26T06:45:27.202Z,10132.00
2019-05-26T06:46:27.179Z,10320.00
2019-05-26T06:47:27.174Z,10612.00
2019-05-26T06:48:27.309Z,11076.00
2019-05-26T06:49:27.159Z,11668.00
2019-05-26T06:50:27.144Z,12248.00
2019-05-26T06:51:27.127Z,12900.00
2019-05-26T06:52:40.082Z,13416.00
2019-05-26T06:53:27.105Z,14216.00
2019-05-26T06:54:27.089Z,14600.00
2019-05-26T06:55:27.094Z,15288.00
2019-05-26T06:56:27.070Z,16028.00
2019-05-26T06:57:27.057Z,17008.00
2019-05-26T06:58:27.054Z,17044.00
2019-05-26T06:59:27.038Z,17888.00
2019-05-26T07:00:27.041Z,19680.00
2019-05-26T07:01:27.022Z,18976.00
2019-05-26T07:02:27.002Z,18560.00
2019-05-26T07:03:26.992Z,17504.00
2019-05-26T07:04:26.982Z,16292.00
2019-05-26T07:05:26.973Z,14732.00
2019-05-26T07:06:27.012Z,13436.00
2019-05-26T07:07:26.942Z,12656.00
2019-05-26T07:08:26.980Z,12280.00
2019-05-26T07:09:26.980Z,12124.00
2019-05-26T07:10:26.916Z,12020.00
2019-05-26T07:11:26.904Z,12244.00
2019-05-26T07:12:26.903Z,12088.00
2019-05-26T07:13:26.881Z,11720.00
2019-05-26T07:14:26.869Z,11388.00
2019-05-26T07:15:26.857Z,10988.00
2019-05-26T07:16:37.569Z,10704.00
2019-05-26T07:17:27.844Z,10444.00
2019-05-26T07:18:26.818Z,10384.00
2019-05-26T07:19:26.818Z,10500.00
2019-05-26T07:20:26.798Z,10484.00
2019-05-26T07:21:26.784Z,10824.00
2019-05-26T07:22:26.783Z,11456.00
2019-05-26T07:23:38.595Z,12008.00
2019-05-26T07:24:29.290Z,12036.00
2019-05-26T07:25:26.740Z,11916.00
2019-05-26T07:26:26.737Z,11724.00
2019-05-26T07:27:26.716Z,11288.00
2019-05-26T07:28:26.717Z,10936.00
2019-05-26T07:29:26.718Z,10692.00
2019-05-26T07:30:26.703Z,10648.00
2019-05-26T07:31:26.678Z,10544.00
2019-05-26T07:32:26.668Z,10444.00
2019-05-26T07:33:26.652Z,10200.00
2019-05-26T07:34:26.652Z,9860.00
2019-05-26T07:35:26.638Z,9672.00
2019-05-26T07:36:26.623Z,9676.00
2019-05-26T07:37:26.607Z,9540.00
2019-05-26T07:38:26.601Z,9336.00
2019-05-26T07:39:26.587Z,9212.00
2019-05-26T07:40:26.600Z,9104.00
2019-05-26T07:41:26.576Z,8864.00
2019-05-26T07:42:26.565Z,8544.00
2019-05-26T07:43:28.215Z,8228.00
2019-05-26T07:44:26.532Z,7996.00
2019-05-26T07:45:26.534Z,7772.00
2019-05-26T07:46:26.510Z,7588.00
2019-05-26T07:47:26.547Z,7412.00
2019-05-26T07:48:26.485Z,7292.00
2019-05-26T07:49:26.473Z,7076.00
2019-05-26T07:50:27.085Z,6828.00
2019-05-26T07:51:26.449Z,6636.00
2019-05-26T07:52:26.446Z,6472.00
2019-05-26T07:53:26.473Z,6376.00
2019-05-26T07:54:38.164Z,6352.00
2019-05-26T07:55:26.407Z,6532.00
2019-05-26T07:56:26.394Z,6948.00
2019-05-26T07:57:26.393Z,7364.00
2019-05-26T07:58:26.377Z,7564.00
2019-05-26T07:59:26.376Z,7768.00
2019-05-26T08:00:26.354Z,8080.00
2019-05-26T08:01:35.217Z,8236.00
2019-05-26T08:02:27.367Z,8624.00
2019-05-26T08:03:26.391Z,9032.00
2019-05-26T08:04:26.312Z,9316.00
2019-05-26T08:05:26.291Z,9492.00
2019-05-26T08:06:26.283Z,9792.00
2019-05-26T08:07:26.270Z,10292.00
2019-05-26T08:08:26.316Z,10748.00
2019-05-26T08:09:26.256Z,11040.00
2019-05-26T08:10:26.246Z,11196.00
2019-05-26T08:11:26.224Z,11232.00
2019-05-26T08:12:30.413Z,11280.00
2019-05-26T08:13:26.229Z,11340.00
2019-05-26T08:14:26.210Z,11400.00
2019-05-26T08:15:26.196Z,11192.00
2019-05-26T08:16:26.175Z,11124.00
2019-05-26T08:17:26.167Z,11084.00
2019-05-26T08:18:26.157Z,11308.00
2019-05-26T08:19:26.174Z,11752.00
2019-05-26T08:20:26.128Z,11772.00
2019-05-26T08:21:26.119Z,11760.00
2019-05-26T08:22:26.105Z,11916.00
2019-05-26T08:23:26.095Z,12192.00
2019-05-26T08:24:26.090Z,12472.00
2019-05-26T08:25:39.640Z,12992.00
2019-05-26T08:26:26.066Z,14708.00
2019-05-26T08:27:26.053Z,14484.00
2019-05-26T08:28:26.033Z,15084.00
2019-05-26T08:29:26.039Z,15308.00
2019-05-26T08:30:26.028Z,16396.00
2019-05-26T08:31:26.019Z,16140.00
2019-05-26T08:32:25.993Z,16368.00
2019-05-26T08:33:25.980Z,16472.00
2019-05-26T08:34:25.979Z,16868.00
2019-05-26T08:35:25.980Z,16564.00
2019-05-26T08:36:25.950Z,16612.00
2019-05-26T08:37:25.934Z,16536.00
2019-05-26T08:38:25.926Z,16420.00
2019-05-26T08:39:25.917Z,16328.00
2019-05-26T08:40:25.901Z,17920.00
2019-05-26T08:41:25.950Z,17144.00
2019-05-26T08:42:28.938Z,16656.00
2019-05-26T08:43:26.872Z,16204.00
2019-05-26T08:44:25.858Z,16324.00
2019-05-26T08:45:25.851Z,16024.00
2019-05-26T08:46:25.833Z,15652.00
2019-05-26T08:47:25.829Z,14476.00
2019-05-26T08:48:25.815Z,13752.00
2019-05-26T08:49:25.810Z,13084.00
2019-05-26T08:50:25.788Z,12464.00
2019-05-26T08:51:25.779Z,11924.00
2019-05-26T08:52:25.790Z,11304.00
2019-05-26T08:53:25.757Z,10752.00
2019-05-26T08:54:25.747Z,10296.00
2019-05-26T08:55:25.733Z,9768.00
2019-05-26T08:56:37.694Z,9428.00
2019-05-26T08:57:25.710Z,9224.00
2019-05-26T08:58:29.186Z,9068.00
2019-05-26T08:59:25.690Z,9032.00
2019-05-26T09:00:25.684Z,9068.00
2019-05-26T09:01:25.662Z,9304.00
2019-05-26T09:02:25.656Z,9864.00
2019-05-26T09:03:25.641Z,11112.00
2019-05-26T09:04:25.646Z,12316.00
2019-05-26T09:05:25.615Z,12284.00
2019-05-26T09:06:25.619Z,12852.00
2019-05-26T09:07:25.597Z,12456.00
2019-05-26T09:08:25.626Z,12284.00
2019-05-26T09:09:25.590Z,12376.00
2019-05-26T09:10:25.564Z,12500.00
2019-05-26T09:11:25.551Z,13012.00
2019-05-26T09:12:25.540Z,12680.00
2019-05-26T09:13:25.530Z,12652.00
2019-05-26T09:14:25.692Z,13300.00
2019-05-26T09:15:25.519Z,13424.00
2019-05-26T09:16:34.110Z,13784.00
2019-05-26T09:17:25.481Z,14184.00
2019-05-26T09:18:25.604Z,15128.00
2019-05-26T09:19:25.522Z,15824.00
2019-05-26T09:20:25.467Z,16836.00
2019-05-26T09:21:25.443Z,18080.00
2019-05-26T09:22:25.429Z,18368.00
2019-05-26T09:23:25.409Z,18752.00
2019-05-26T09:24:25.407Z,19424.00
2019-05-26T09:25:25.434Z,19808.00
2019-05-26T09:26:25.385Z,19936.00
2019-05-26T09:27:25.370Z,19808.00
2019-05-26T09:28:25.362Z,19776.00
2019-05-26T09:29:25.345Z,19808.00
2019-05-26T09:30:25.337Z,19808.00
2019-05-26T09:31:25.379Z,19744.00
2019-05-26T09:32:25.318Z,19360.00
2019-05-26T09:33:25.300Z,18496.00
2019-05-26T09:34:25.325Z,18080.00
2019-05-26T09:35:25.280Z,17952.00
2019-05-26T09:36:25.267Z,17952.00
2019-05-26T09:37:25.278Z,17536.00
2019-05-26T09:38:25.305Z,16460.00
2019-05-26T09:39:25.238Z,15660.00
2019-05-26T09:40:25.225Z,14808.00
2019-05-26T09:41:25.262Z,14060.00
2019-05-26T09:42:25.234Z,13640.00
2019-05-26T09:43:25.201Z,13040.00
2019-05-26T09:44:25.185Z,12632.00
2019-05-26T09:45:25.194Z,12116.00
2019-05-26T09:46:25.161Z,12392.00
2019-05-26T09:47:36.782Z,12788.00
2019-05-26T09:48:25.136Z,12748.00
2019-05-26T09:49:25.153Z,12552.00
2019-05-26T09:50:25.109Z,11996.00
2019-05-26T09:51:25.102Z,11688.00
2019-05-26T09:52:25.094Z,11876.00
2019-05-26T09:53:25.123Z,12404.00
2019-05-26T09:54:25.075Z,13008.00
2019-05-26T09:55:25.056Z,13488.00
2019-05-26T09:56:25.052Z,14040.00
2019-05-26T09:57:25.039Z,14448.00
2019-05-26T09:58:25.028Z,14676.00
2019-05-26T09:59:25.024Z,14700.00
2019-05-26T10:00:25.005Z,14360.00
2019-05-26T10:01:24.993Z,13604.00
2019-05-26T10:02:24.991Z,12816.00
2019-05-26T10:03:24.973Z,12120.00
2019-05-26T10:04:24.966Z,11580.00
2019-05-26T10:05:24.947Z,11104.00
2019-05-26T10:06:24.953Z,10788.00
2019-05-26T10:07:24.924Z,10376.00
2019-05-26T10:08:24.917Z,10132.00
2019-05-26T10:09:24.915Z,10120.00
2019-05-26T10:10:24.910Z,10308.00
2019-05-26T10:11:24.881Z,10768.00
2019-05-26T10:12:24.871Z,11332.00
2019-05-26T10:13:31.690Z,11784.00
2019-05-26T10:14:25.850Z,12104.00
2019-05-26T10:15:24.878Z,12708.00
2019-05-26T10:16:24.834Z,13340.00
2019-05-26T10:17:24.809Z,14212.00
2019-05-26T10:18:37.427Z,15144.00
2019-05-26T10:19:24.786Z,15632.00
2019-05-26T10:20:24.779Z,15740.00
2019-05-26T10:21:24.777Z,16248.00
2019-05-26T10:22:24.782Z,16660.00
2019-05-26T10:23:24.745Z,16984.00
2019-05-26T10:24:24.754Z,17440.00
2019-05-26T10:25:24.725Z,17504.00
2019-05-26T10:26:24.719Z,17196.00
2019-05-26T10:27:24.703Z,17120.00
2019-05-26T10:28:24.693Z,17024.00
2019-05-26T10:29:24.698Z,16908.00
2019-05-26T10:30:24.669Z,16416.00
2019-05-26T10:31:24.668Z,15688.00
2019-05-26T10:32:24.690Z,14600.00
2019-05-26T10:33:24.658Z,13340.00
2019-05-26T10:34:24.625Z,12580.00
2019-05-26T10:35:24.622Z,12000.00
2019-05-26T10:36:24.636Z,11160.00
2019-05-26T10:37:24.590Z,10412.00
2019-05-26T10:38:24.585Z,10072.00
2019-05-26T10:39:32.520Z,10192.00
2019-05-26T10:40:24.549Z,10460.00
2019-05-26T10:41:24.540Z,10720.00
2019-05-26T10:42:24.534Z,10320.00
2019-05-26T10:43:24.515Z,9480.00
2019-05-26T10:44:24.510Z,9044.00
2019-05-26T10:45:24.496Z,8800.00
2019-05-26T10:46:24.482Z,8536.00
2019-05-26T10:47:24.514Z,8716.00
2019-05-26T10:48:24.597Z,9616.00
2019-05-26T10:49:24.449Z,10068.00
2019-05-26T10:50:24.441Z,10400.00
2019-05-26T10:51:24.428Z,11096.00
2019-05-26T10:52:24.420Z,12288.00
2019-05-26T10:53:24.408Z,13784.00
2019-05-26T10:54:24.403Z,15176.00
2019-05-26T10:55:24.388Z,16272.00
2019-05-26T10:56:24.373Z,17408.00
2019-05-26T10:57:24.431Z,18464.00
2019-05-26T10:58:24.368Z,19456.00
2019-05-26T10:59:24.331Z,20160.00
2019-05-26T11:00:24.332Z,20320.00
2019-05-26T11:01:24.317Z,20192.00
2019-05-26T11:02:24.302Z,19840.00
2019-05-26T11:03:24.324Z,19584.00
2019-05-26T11:04:24.287Z,19232.00
2019-05-26T11:05:24.267Z,18976.00
2019-05-26T11:06:24.272Z,18656.00
2019-05-26T11:07:26.866Z,18432.00
2019-05-26T11:08:24.247Z,18304.00
2019-05-26T11:09:24.232Z,17952.00
2019-05-26T11:10:36.955Z,17824.00
2019-05-26T11:11:24.201Z,18144.00
2019-05-26T11:12:24.189Z,18432.00
2019-05-26T11:13:24.187Z,18720.00
2019-05-26T11:14:24.189Z,19040.00
2019-05-26T11:15:24.154Z,19168.00
2019-05-26T11:16:24.169Z,19072.00
2019-05-26T11:17:24.132Z,19040.00
2019-05-26T11:18:24.122Z,18848.00
2019-05-26T11:19:24.108Z,18368.00
2019-05-26T11:20:24.130Z,18208.00
2019-05-26T11:21:24.084Z,18368.00
2019-05-26T11:22:24.076Z,18688.00
2019-05-26T11:23:24.067Z,18816.00
2019-05-26T11:24:24.056Z,18912.00
2019-05-26T11:25:24.079Z,19104.00
2019-05-26T11:26:24.027Z,19072.00
2019-05-26T11:27:24.020Z,18944.00
2019-05-26T11:28:24.008Z,18784.00
2019-05-26T11:29:24.005Z,18336.00
2019-05-26T11:30:23.991Z,17952.00
2019-05-26T11:31:23.990Z,17408.00
2019-05-26T11:32:23.981Z,16856.00
2019-05-26T11:33:23.950Z,16572.00
2019-05-26T11:34:23.943Z,16152.00
2019-05-26T11:35:23.939Z,15348.00
2019-05-26T11:36:23.934Z,15188.00
2019-05-26T11:37:23.920Z,15224.00
2019-05-26T11:38:23.904Z,15232.00
2019-05-26T11:39:23.889Z,15124.00
2019-05-26T11:40:23.880Z,15164.00
2019-05-26T11:41:36.899Z,15476.00
2019-05-26T11:42:23.853Z,15648.00
2019-05-26T11:43:23.843Z,15776.00
2019-05-26T11:44:23.829Z,15808.00
2019-05-26T11:45:23.831Z,15868.00
2019-05-26T11:46:23.824Z,15840.00
2019-05-26T11:47:23.835Z,15736.00
2019-05-26T11:48:23.790Z,15704.00
2019-05-26T11:49:23.792Z,15580.00
2019-05-26T11:50:23.770Z,15564.00
2019-05-26T11:51:23.761Z,15508.00
2019-05-26T11:52:23.740Z,15412.00
2019-05-26T11:53:23.742Z,15332.00
2019-05-26T11:54:23.725Z,15244.00
2019-05-26T11:55:23.708Z,15116.00
2019-05-26T11:56:23.700Z,14928.00
2019-05-26T11:57:23.698Z,14720.00
2019-05-26T11:58:23.682Z,14576.00
2019-05-26T11:59:23.661Z,14488.00
2019-05-26T12:00:23.650Z,14420.00
2019-05-26T12:01:23.650Z,14496.00
2019-05-26T12:02:23.626Z,14600.00
2019-05-26T12:03:23.653Z,14680.00
2019-05-26T12:04:23.614Z,14716.00
2019-05-26T12:05:23.595Z,14748.00
2019-05-26T12:06:23.586Z,14840.00